sensor_id;sensor_type;location;lat;lon;timestamp;P1;durP1;ratioP1;P2;durP2;ratioP2
10705;SDS011;5404;42.656;23.336;2023-08-08T00:02:00;2.65;;;1.48;;
10705;SDS011;5404;42.656;23.336;2023-08-08T00:04:25;2.38;;;1.85;;
10705;SDS011;5404;42.656;23.336;2023-08-08T00:06:51;1.50;;;1.35;;
10705;SDS011;5404;42.656;23.336;2023-08-08T00:09:16;2.95;;;1.83;;
10705;SDS011;5404;42.656;23.336;2023-08-08T00:11:42;2.50;;;1.52;;
10705;SDS011;5404;42.656;23.336;2023-08-08T00:14:07;1.98;;;1.50;;
10705;SDS011;5404;42.656;23.336;2023-08-08T00:16:32;6.68;;;1.83;;
10705;SDS011;5404;42.656;23.336;2023-08-08T00:18:58;2.25;;;1.52;;
10705;SDS011;5404;42.656;23.336;2023-08-08T00:21:23;2.30;;;1.67;;
10705;SDS011;5404;42.656;23.336;2023-08-08T00:23:49;2.45;;;1.67;;
10705;SDS011;5404;42.656;23.336;2023-08-08T00:26:14;6.70;;;2.72;;
10705;SDS011;5404;42.656;23.336;2023-08-08T00:28:40;2.13;;;1.80;;
10705;SDS011;5404;42.656;23.336;2023-08-08T00:31:05;2.35;;;1.70;;
10705;SDS011;5404;42.656;23.336;2023-08-08T00:33:30;6.00;;;1.90;;
10705;SDS011;5404;42.656;23.336;2023-08-08T00:35:56;2.05;;;1.38;;
10705;SDS011;5404;42.656;23.336;2023-08-08T00:38:21;2.17;;;1.63;;
10705;SDS011;5404;42.656;23.336;2023-08-08T00:40:47;2.83;;;1.60;;
10705;SDS011;5404;42.656;23.336;2023-08-08T00:43:12;1.85;;;1.50;;
10705;SDS011;5404;42.656;23.336;2023-08-08T00:45:38;2.30;;;1.70;;
10705;SDS011;5404;42.656;23.336;2023-08-08T00:48:07;2.05;;;1.70;;
10705;SDS011;5404;42.656;23.336;2023-08-08T00:50:33;3.58;;;1.92;;
10705;SDS011;5404;42.656;23.336;2023-08-08T00:53:00;1.85;;;1.73;;
10705;SDS011;5404;42.656;23.336;2023-08-08T00:55:25;5.63;;;1.75;;
10705;SDS011;5404;42.656;23.336;2023-08-08T00:57:51;1.70;;;1.60;;
10705;SDS011;5404;42.656;23.336;2023-08-08T01:00:17;1.95;;;1.70;;
10705;SDS011;5404;42.656;23.336;2023-08-08T01:02:43;4.13;;;2.65;;
10705;SDS011;5404;42.656;23.336;2023-08-08T01:05:08;2.95;;;1.80;;
10705;SDS011;5404;42.656;23.336;2023-08-08T01:07:47;3.13;;;1.42;;
10705;SDS011;5404;42.656;23.336;2023-08-08T01:10:28;2.58;;;1.90;;
10705;SDS011;5404;42.656;23.336;2023-08-08T01:12:59;1.70;;;1.60;;
10705;SDS011;5404;42.656;23.336;2023-08-08T01:15:27;1.80;;;1.60;;
10705;SDS011;5404;42.656;23.336;2023-08-08T01:17:57;2.13;;;1.92;;
10705;SDS011;5404;42.656;23.336;2023-08-08T01:20:23;2.13;;;1.65;;
10705;SDS011;5404;42.656;23.336;2023-08-08T01:23:33;2.58;;;1.70;;
10705;SDS011;5404;42.656;23.336;2023-08-08T01:25:41;1.50;;;1.40;;
10705;SDS011;5404;42.656;23.336;2023-08-08T01:28:08;1.90;;;1.67;;
10705;SDS011;5404;42.656;23.336;2023-08-08T01:30:34;1.77;;;1.50;;
10705;SDS011;5404;42.656;23.336;2023-08-08T01:32:59;1.83;;;1.60;;
10705;SDS011;5404;42.656;23.336;2023-08-08T01:35:26;1.98;;;1.77;;
10705;SDS011;5404;42.656;23.336;2023-08-08T01:37:58;3.53;;;1.90;;
10705;SDS011;5404;42.656;23.336;2023-08-08T01:40:33;2.17;;;1.67;;
10705;SDS011;5404;42.656;23.336;2023-08-08T01:43:00;2.20;;;1.63;;
10705;SDS011;5404;42.656;23.336;2023-08-08T01:45:26;1.85;;;1.63;;
10705;SDS011;5404;42.656;23.336;2023-08-08T01:47:52;2.30;;;2.10;;
10705;SDS011;5404;42.656;23.336;2023-08-08T01:50:18;2.95;;;2.10;;
10705;SDS011;5404;42.656;23.336;2023-08-08T01:52:44;2.30;;;1.60;;
10705;SDS011;5404;42.656;23.336;2023-08-08T01:55:10;4.10;;;1.90;;
10705;SDS011;5404;42.656;23.336;2023-08-08T01:57:35;2.28;;;1.83;;
10705;SDS011;5404;42.656;23.336;2023-08-08T02:00:01;1.80;;;1.70;;
10705;SDS011;5404;42.656;23.336;2023-08-08T02:02:29;4.35;;;1.85;;
10705;SDS011;5404;42.656;23.336;2023-08-08T02:04:54;5.13;;;1.95;;
10705;SDS011;5404;42.656;23.336;2023-08-08T02:07:20;3.20;;;2.28;;
10705;SDS011;5404;42.656;23.336;2023-08-08T02:09:45;2.53;;;1.83;;
10705;SDS011;5404;42.656;23.336;2023-08-08T02:12:11;1.92;;;1.73;;
10705;SDS011;5404;42.656;23.336;2023-08-08T02:14:36;1.75;;;1.50;;
10705;SDS011;5404;42.656;23.336;2023-08-08T02:17:02;5.55;;;1.55;;
10705;SDS011;5404;42.656;23.336;2023-08-08T02:19:27;6.18;;;1.90;;
10705;SDS011;5404;42.656;23.336;2023-08-08T02:21:54;2.20;;;2.00;;
10705;SDS011;5404;42.656;23.336;2023-08-08T02:24:19;2.28;;;2.00;;
10705;SDS011;5404;42.656;23.336;2023-08-08T02:26:45;3.35;;;2.30;;
10705;SDS011;5404;42.656;23.336;2023-08-08T02:29:10;2.58;;;2.25;;
10705;SDS011;5404;42.656;23.336;2023-08-08T02:31:36;3.67;;;2.33;;
10705;SDS011;5404;42.656;23.336;2023-08-08T02:34:01;2.22;;;2.03;;
10705;SDS011;5404;42.656;23.336;2023-08-08T02:36:26;3.47;;;2.17;;
10705;SDS011;5404;42.656;23.336;2023-08-08T02:38:52;2.35;;;2.15;;
10705;SDS011;5404;42.656;23.336;2023-08-08T02:41:18;3.00;;;2.38;;
10705;SDS011;5404;42.656;23.336;2023-08-08T02:43:45;2.30;;;2.10;;
10705;SDS011;5404;42.656;23.336;2023-08-08T02:46:10;4.80;;;2.38;;
10705;SDS011;5404;42.656;23.336;2023-08-08T02:48:36;5.13;;;2.85;;
10705;SDS011;5404;42.656;23.336;2023-08-08T02:51:01;6.13;;;2.33;;
10705;SDS011;5404;42.656;23.336;2023-08-08T02:53:27;2.63;;;2.38;;
10705;SDS011;5404;42.656;23.336;2023-08-08T02:55:52;3.05;;;2.17;;
10705;SDS011;5404;42.656;23.336;2023-08-08T02:58:18;2.78;;;2.47;;
10705;SDS011;5404;42.656;23.336;2023-08-08T03:00:43;6.82;;;2.85;;
10705;SDS011;5404;42.656;23.336;2023-08-08T03:03:08;3.08;;;2.78;;
10705;SDS011;5404;42.656;23.336;2023-08-08T03:05:34;5.72;;;2.60;;
10705;SDS011;5404;42.656;23.336;2023-08-08T03:07:59;3.42;;;2.67;;
10705;SDS011;5404;42.656;23.336;2023-08-08T03:10:25;2.88;;;2.67;;
10705;SDS011;5404;42.656;23.336;2023-08-08T03:12:50;2.47;;;2.28;;
10705;SDS011;5404;42.656;23.336;2023-08-08T03:15:16;3.75;;;2.85;;
10705;SDS011;5404;42.656;23.336;2023-08-08T03:17:41;2.40;;;2.20;;
10705;SDS011;5404;42.656;23.336;2023-08-08T03:20:07;3.80;;;2.88;;
10705;SDS011;5404;42.656;23.336;2023-08-08T03:22:33;3.10;;;2.80;;
10705;SDS011;5404;42.656;23.336;2023-08-08T03:24:59;8.15;;;2.92;;
10705;SDS011;5404;42.656;23.336;2023-08-08T03:27:24;2.67;;;2.47;;
10705;SDS011;5404;42.656;23.336;2023-08-08T03:29:50;3.95;;;3.30;;
10705;SDS011;5404;42.656;23.336;2023-08-08T03:32:16;3.08;;;2.80;;
10705;SDS011;5404;42.656;23.336;2023-08-08T03:34:42;6.22;;;3.40;;
10705;SDS011;5404;42.656;23.336;2023-08-08T03:37:07;3.92;;;2.95;;
10705;SDS011;5404;42.656;23.336;2023-08-08T03:39:33;5.72;;;3.05;;
10705;SDS011;5404;42.656;23.336;2023-08-08T03:41:58;3.50;;;3.15;;
10705;SDS011;5404;42.656;23.336;2023-08-08T03:44:23;6.30;;;3.35;;
10705;SDS011;5404;42.656;23.336;2023-08-08T03:46:49;4.47;;;3.22;;
10705;SDS011;5404;42.656;23.336;2023-08-08T03:49:15;3.35;;;3.05;;
10705;SDS011;5404;42.656;23.336;2023-08-08T03:51:41;3.55;;;3.20;;
10705;SDS011;5404;42.656;23.336;2023-08-08T03:54:06;5.22;;;3.33;;
10705;SDS011;5404;42.656;23.336;2023-08-08T03:56:32;6.25;;;3.17;;
10705;SDS011;5404;42.656;23.336;2023-08-08T03:58:57;5.53;;;3.75;;
10705;SDS011;5404;42.656;23.336;2023-08-08T04:01:23;3.97;;;3.30;;
10705;SDS011;5404;42.656;23.336;2023-08-08T04:03:48;4.55;;;3.35;;
10705;SDS011;5404;42.656;23.336;2023-08-08T04:06:14;5.30;;;3.58;;
10705;SDS011;5404;42.656;23.336;2023-08-08T04:08:39;5.30;;;3.53;;
10705;SDS011;5404;42.656;23.336;2023-08-08T04:11:05;3.85;;;3.40;;
10705;SDS011;5404;42.656;23.336;2023-08-08T04:13:30;4.10;;;3.70;;
10705;SDS011;5404;42.656;23.336;2023-08-08T04:15:55;6.22;;;3.88;;
10705;SDS011;5404;42.656;23.336;2023-08-08T04:18:21;4.93;;;3.42;;
10705;SDS011;5404;42.656;23.336;2023-08-08T04:20:46;5.65;;;3.58;;
10705;SDS011;5404;42.656;23.336;2023-08-08T04:23:12;5.40;;;3.88;;
10705;SDS011;5404;42.656;23.336;2023-08-08T04:25:38;4.38;;;3.88;;
10705;SDS011;5404;42.656;23.336;2023-08-08T04:28:03;5.18;;;4.00;;
10705;SDS011;5404;42.656;23.336;2023-08-08T04:30:29;6.15;;;3.58;;
10705;SDS011;5404;42.656;23.336;2023-08-08T04:32:54;4.28;;;3.88;;
10705;SDS011;5404;42.656;23.336;2023-08-08T04:35:20;4.95;;;3.97;;
10705;SDS011;5404;42.656;23.336;2023-08-08T04:37:45;5.93;;;3.38;;
10705;SDS011;5404;42.656;23.336;2023-08-08T04:40:11;4.35;;;3.90;;
10705;SDS011;5404;42.656;23.336;2023-08-08T04:42:36;4.85;;;3.70;;
10705;SDS011;5404;42.656;23.336;2023-08-08T04:45:02;6.53;;;3.72;;
10705;SDS011;5404;42.656;23.336;2023-08-08T04:47:28;4.22;;;3.42;;
10705;SDS011;5404;42.656;23.336;2023-08-08T04:49:53;4.00;;;3.70;;
10705;SDS011;5404;42.656;23.336;2023-08-08T04:52:18;5.10;;;3.47;;
10705;SDS011;5404;42.656;23.336;2023-08-08T04:54:44;4.00;;;3.40;;
10705;SDS011;5404;42.656;23.336;2023-08-08T04:57:09;4.55;;;3.38;;
10705;SDS011;5404;42.656;23.336;2023-08-08T04:59:35;3.90;;;3.58;;
10705;SDS011;5404;42.656;23.336;2023-08-08T05:02:00;5.13;;;3.80;;
10705;SDS011;5404;42.656;23.336;2023-08-08T05:04:26;4.10;;;3.70;;
10705;SDS011;5404;42.656;23.336;2023-08-08T05:06:51;3.53;;;3.13;;
10705;SDS011;5404;42.656;23.336;2023-08-08T05:09:17;5.85;;;3.42;;
10705;SDS011;5404;42.656;23.336;2023-08-08T05:11:42;4.97;;;3.67;;
10705;SDS011;5404;42.656;23.336;2023-08-08T05:14:08;4.18;;;3.35;;
10705;SDS011;5404;42.656;23.336;2023-08-08T05:16:33;4.15;;;3.50;;
10705;SDS011;5404;42.656;23.336;2023-08-08T05:18:58;5.10;;;3.40;;
10705;SDS011;5404;42.656;23.336;2023-08-08T05:21:24;12.50;;;3.65;;
10705;SDS011;5404;42.656;23.336;2023-08-08T05:23:49;4.20;;;3.28;;
10705;SDS011;5404;42.656;23.336;2023-08-08T05:26:15;5.60;;;3.55;;
10705;SDS011;5404;42.656;23.336;2023-08-08T05:28:41;3.85;;;2.92;;
10705;SDS011;5404;42.656;23.336;2023-08-08T05:31:06;3.35;;;3.05;;
10705;SDS011;5404;42.656;23.336;2023-08-08T05:33:32;5.32;;;3.17;;
10705;SDS011;5404;42.656;23.336;2023-08-08T05:35:58;6.70;;;3.33;;
10705;SDS011;5404;42.656;23.336;2023-08-08T05:38:23;3.88;;;3.40;;
10705;SDS011;5404;42.656;23.336;2023-08-08T05:40:49;9.50;;;3.58;;
10705;SDS011;5404;42.656;23.336;2023-08-08T05:43:14;4.22;;;3.47;;
10705;SDS011;5404;42.656;23.336;2023-08-08T05:45:43;4.07;;;3.13;;
10705;SDS011;5404;42.656;23.336;2023-08-08T05:48:09;8.68;;;3.30;;
10705;SDS011;5404;42.656;23.336;2023-08-08T05:50:37;4.60;;;3.05;;
10705;SDS011;5404;42.656;23.336;2023-08-08T05:53:03;11.20;;;3.47;;
10705;SDS011;5404;42.656;23.336;2023-08-08T05:55:29;5.55;;;2.92;;
10705;SDS011;5404;42.656;23.336;2023-08-08T05:57:54;5.30;;;3.15;;
10705;SDS011;5404;42.656;23.336;2023-08-08T06:00:20;12.35;;;3.40;;
10705;SDS011;5404;42.656;23.336;2023-08-08T06:02:45;7.03;;;3.88;;
10705;SDS011;5404;42.656;23.336;2023-08-08T06:05:11;10.32;;;4.05;;
10705;SDS011;5404;42.656;23.336;2023-08-08T06:07:37;5.65;;;3.75;;
10705;SDS011;5404;42.656;23.336;2023-08-08T06:10:03;6.53;;;4.15;;
10705;SDS011;5404;42.656;23.336;2023-08-08T06:12:29;8.05;;;3.63;;
10705;SDS011;5404;42.656;23.336;2023-08-08T06:14:54;4.68;;;3.90;;
10705;SDS011;5404;42.656;23.336;2023-08-08T06:17:21;7.95;;;4.32;;
10705;SDS011;5404;42.656;23.336;2023-08-08T06:19:48;8.00;;;4.70;;
10705;SDS011;5404;42.656;23.336;2023-08-08T06:22:15;4.70;;;3.83;;
10705;SDS011;5404;42.656;23.336;2023-08-08T06:24:40;4.50;;;3.42;;
10705;SDS011;5404;42.656;23.336;2023-08-08T06:27:06;5.40;;;3.78;;
10705;SDS011;5404;42.656;23.336;2023-08-08T06:29:31;24.30;;;4.22;;
10705;SDS011;5404;42.656;23.336;2023-08-08T06:31:56;4.97;;;3.28;;
10705;SDS011;5404;42.656;23.336;2023-08-08T06:34:22;6.57;;;3.60;;
10705;SDS011;5404;42.656;23.336;2023-08-08T06:36:47;6.93;;;3.78;;
10705;SDS011;5404;42.656;23.336;2023-08-08T06:39:13;3.53;;;3.17;;
10705;SDS011;5404;42.656;23.336;2023-08-08T06:41:38;6.50;;;3.67;;
10705;SDS011;5404;42.656;23.336;2023-08-08T06:44:04;5.20;;;2.90;;
10705;SDS011;5404;42.656;23.336;2023-08-08T06:46:30;6.03;;;3.45;;
10705;SDS011;5404;42.656;23.336;2023-08-08T06:48:55;7.18;;;3.60;;
10705;SDS011;5404;42.656;23.336;2023-08-08T06:51:26;5.95;;;3.33;;
10705;SDS011;5404;42.656;23.336;2023-08-08T06:53:52;3.20;;;2.90;;
10705;SDS011;5404;42.656;23.336;2023-08-08T06:56:18;7.05;;;2.78;;
10705;SDS011;5404;42.656;23.336;2023-08-08T06:58:43;5.45;;;2.67;;
10705;SDS011;5404;42.656;23.336;2023-08-08T07:01:09;5.82;;;1.73;;
10705;SDS011;5404;42.656;23.336;2023-08-08T07:03:35;9.95;;;2.20;;
10705;SDS011;5404;42.656;23.336;2023-08-08T07:06:01;4.53;;;2.00;;
10705;SDS011;5404;42.656;23.336;2023-08-08T07:08:27;2.45;;;2.25;;
10705;SDS011;5404;42.656;23.336;2023-08-08T07:10:54;2.92;;;2.40;;
10705;SDS011;5404;42.656;23.336;2023-08-08T07:13:20;3.38;;;2.55;;
10705;SDS011;5404;42.656;23.336;2023-08-08T07:15:45;2.72;;;2.08;;
10705;SDS011;5404;42.656;23.336;2023-08-08T07:18:10;6.93;;;2.35;;
10705;SDS011;5404;42.656;23.336;2023-08-08T07:20:36;7.47;;;2.60;;
10705;SDS011;5404;42.656;23.336;2023-08-08T07:23:01;3.10;;;2.40;;
10705;SDS011;5404;42.656;23.336;2023-08-08T07:25:27;6.30;;;2.42;;
10705;SDS011;5404;42.656;23.336;2023-08-08T07:27:52;5.13;;;2.30;;
10705;SDS011;5404;42.656;23.336;2023-08-08T07:30:18;5.35;;;2.38;;
10705;SDS011;5404;42.656;23.336;2023-08-08T07:32:43;7.18;;;2.10;;
10705;SDS011;5404;42.656;23.336;2023-08-08T07:35:09;3.30;;;2.10;;
10705;SDS011;5404;42.656;23.336;2023-08-08T07:37:35;10.73;;;2.13;;
10705;SDS011;5404;42.656;23.336;2023-08-08T07:40:01;12.15;;;2.28;;
10705;SDS011;5404;42.656;23.336;2023-08-08T07:42:27;5.75;;;1.70;;
10705;SDS011;5404;42.656;23.336;2023-08-08T07:44:52;3.22;;;1.88;;
10705;SDS011;5404;42.656;23.336;2023-08-08T07:47:18;6.95;;;1.88;;
10705;SDS011;5404;42.656;23.336;2023-08-08T07:49:43;4.88;;;2.22;;
10705;SDS011;5404;42.656;23.336;2023-08-08T07:52:09;2.72;;;1.83;;
10705;SDS011;5404;42.656;23.336;2023-08-08T07:54:34;1.70;;;1.60;;
10705;SDS011;5404;42.656;23.336;2023-08-08T07:57:00;2.40;;;1.60;;
10705;SDS011;5404;42.656;23.336;2023-08-08T07:59:25;2.40;;;1.40;;
10705;SDS011;5404;42.656;23.336;2023-08-08T08:01:51;4.82;;;1.85;;
10705;SDS011;5404;42.656;23.336;2023-08-08T08:04:17;9.15;;;3.15;;
10705;SDS011;5404;42.656;23.336;2023-08-08T08:06:42;2.92;;;2.22;;
10705;SDS011;5404;42.656;23.336;2023-08-08T08:09:07;3.20;;;1.70;;
10705;SDS011;5404;42.656;23.336;2023-08-08T08:11:33;3.40;;;1.50;;
10705;SDS011;5404;42.656;23.336;2023-08-08T08:13:58;1.55;;;1.40;;
10705;SDS011;5404;42.656;23.336;2023-08-08T08:16:24;3.97;;;1.27;;
10705;SDS011;5404;42.656;23.336;2023-08-08T08:18:49;6.80;;;1.80;;
10705;SDS011;5404;42.656;23.336;2023-08-08T08:21:15;3.55;;;2.33;;
10705;SDS011;5404;42.656;23.336;2023-08-08T08:23:42;7.32;;;2.38;;
10705;SDS011;5404;42.656;23.336;2023-08-08T08:26:09;3.65;;;2.65;;
10705;SDS011;5404;42.656;23.336;2023-08-08T08:28:34;3.80;;;2.80;;
10705;SDS011;5404;42.656;23.336;2023-08-08T08:31:06;3.78;;;2.22;;
10705;SDS011;5404;42.656;23.336;2023-08-08T08:33:32;8.25;;;2.70;;
10705;SDS011;5404;42.656;23.336;2023-08-08T08:35:58;2.35;;;1.90;;
10705;SDS011;5404;42.656;23.336;2023-08-08T08:38:24;2.53;;;1.83;;
10705;SDS011;5404;42.656;23.336;2023-08-08T08:40:49;2.00;;;1.80;;
10705;SDS011;5404;42.656;23.336;2023-08-08T08:43:18;1.90;;;1.80;;
10705;SDS011;5404;42.656;23.336;2023-08-08T08:45:47;11.20;;;1.92;;
10705;SDS011;5404;42.656;23.336;2023-08-08T08:48:17;2.63;;;1.95;;
10705;SDS011;5404;42.656;23.336;2023-08-08T08:50:44;4.00;;;1.83;;
10705;SDS011;5404;42.656;23.336;2023-08-08T08:53:12;2.33;;;1.70;;
10705;SDS011;5404;42.656;23.336;2023-08-08T08:55:38;8.77;;;2.17;;
10705;SDS011;5404;42.656;23.336;2023-08-08T08:58:05;3.55;;;2.30;;
10705;SDS011;5404;42.656;23.336;2023-08-08T09:00:31;6.60;;;2.20;;
10705;SDS011;5404;42.656;23.336;2023-08-08T09:02:57;6.18;;;2.28;;
10705;SDS011;5404;42.656;23.336;2023-08-08T09:05:23;2.45;;;2.22;;
10705;SDS011;5404;42.656;23.336;2023-08-08T09:07:51;5.00;;;2.28;;
10705;SDS011;5404;42.656;23.336;2023-08-08T09:10:17;10.52;;;4.25;;
10705;SDS011;5404;42.656;23.336;2023-08-08T09:12:44;3.88;;;3.10;;
10705;SDS011;5404;42.656;23.336;2023-08-08T09:15:11;4.22;;;2.00;;
10705;SDS011;5404;42.656;23.336;2023-08-08T09:17:40;3.17;;;2.15;;
10705;SDS011;5404;42.656;23.336;2023-08-08T09:20:07;5.28;;;2.40;;
10705;SDS011;5404;42.656;23.336;2023-08-08T09:22:34;5.22;;;2.05;;
10705;SDS011;5404;42.656;23.336;2023-08-08T09:24:59;1.90;;;1.70;;
10705;SDS011;5404;42.656;23.336;2023-08-08T09:27:28;2.20;;;2.00;;
10705;SDS011;5404;42.656;23.336;2023-08-08T09:29:54;5.00;;;1.75;;
10705;SDS011;5404;42.656;23.336;2023-08-08T09:32:19;13.95;;;1.48;;
10705;SDS011;5404;42.656;23.336;2023-08-08T09:34:45;2.13;;;1.75;;
10705;SDS011;5404;42.656;23.336;2023-08-08T09:37:11;3.30;;;2.10;;
10705;SDS011;5404;42.656;23.336;2023-08-08T09:39:36;5.53;;;1.50;;
10705;SDS011;5404;42.656;23.336;2023-08-08T09:42:02;2.50;;;1.80;;
10705;SDS011;5404;42.656;23.336;2023-08-08T09:44:29;2.90;;;1.88;;
10705;SDS011;5404;42.656;23.336;2023-08-08T09:46:56;5.53;;;1.40;;
10705;SDS011;5404;42.656;23.336;2023-08-08T09:49:22;1.40;;;1.30;;
10705;SDS011;5404;42.656;23.336;2023-08-08T09:51:48;1.40;;;1.27;;
10705;SDS011;5404;42.656;23.336;2023-08-08T09:54:15;6.97;;;1.30;;
10705;SDS011;5404;42.656;23.336;2023-08-08T09:56:40;3.88;;;1.63;;
10705;SDS011;5404;42.656;23.336;2023-08-08T09:59:07;7.93;;;1.48;;
10705;SDS011;5404;42.656;23.336;2023-08-08T10:01:34;1.60;;;1.50;;
10705;SDS011;5404;42.656;23.336;2023-08-08T10:04:00;3.22;;;1.67;;
10705;SDS011;5404;42.656;23.336;2023-08-08T10:06:28;4.20;;;1.87;;
10705;SDS011;5404;42.656;23.336;2023-08-08T10:08:54;7.78;;;1.77;;
10705;SDS011;5404;42.656;23.336;2023-08-08T10:11:20;1.70;;;1.60;;
10705;SDS011;5404;42.656;23.336;2023-08-08T10:13:49;3.72;;;1.65;;
10705;SDS011;5404;42.656;23.336;2023-08-08T10:16:16;4.50;;;1.80;;
10705;SDS011;5404;42.656;23.336;2023-08-08T10:18:43;3.65;;;2.83;;
10705;SDS011;5404;42.656;23.336;2023-08-08T10:21:11;2.42;;;1.75;;
10705;SDS011;5404;42.656;23.336;2023-08-08T10:23:38;2.10;;;1.67;;
10705;SDS011;5404;42.656;23.336;2023-08-08T10:26:04;4.88;;;2.10;;
10705;SDS011;5404;42.656;23.336;2023-08-08T10:28:51;7.77;;;2.23;;
10705;SDS011;5404;42.656;23.336;2023-08-08T10:31:18;2.30;;;1.77;;
10705;SDS011;5404;42.656;23.336;2023-08-08T10:33:45;1.55;;;1.45;;
10705;SDS011;5404;42.656;23.336;2023-08-08T10:36:11;4.53;;;1.70;;
10705;SDS011;5404;42.656;23.336;2023-08-08T10:38:45;1.40;;;1.30;;
10705;SDS011;5404;42.656;23.336;2023-08-08T10:41:17;1.58;;;1.48;;
10705;SDS011;5404;42.656;23.336;2023-08-08T10:43:50;3.88;;;1.65;;
10705;SDS011;5404;42.656;23.336;2023-08-08T10:46:23;1.83;;;1.73;;
10705;SDS011;5404;42.656;23.336;2023-08-08T10:48:54;7.05;;;1.85;;
10705;SDS011;5404;42.656;23.336;2023-08-08T10:51:21;4.30;;;1.60;;
10705;SDS011;5404;42.656;23.336;2023-08-08T10:53:50;1.77;;;1.40;;
10705;SDS011;5404;42.656;23.336;2023-08-08T10:56:17;5.05;;;1.50;;
10705;SDS011;5404;42.656;23.336;2023-08-08T10:58:47;2.40;;;1.20;;
10705;SDS011;5404;42.656;23.336;2023-08-08T11:01:13;4.20;;;1.52;;
10705;SDS011;5404;42.656;23.336;2023-08-08T11:03:39;3.88;;;1.75;;
10705;SDS011;5404;42.656;23.336;2023-08-08T11:06:06;7.05;;;1.40;;
10705;SDS011;5404;42.656;23.336;2023-08-08T11:08:33;1.35;;;1.25;;
10705;SDS011;5404;42.656;23.336;2023-08-08T11:11:01;1.73;;;1.57;;
10705;SDS011;5404;42.656;23.336;2023-08-08T11:13:27;8.80;;;1.60;;
10705;SDS011;5404;42.656;23.336;2023-08-08T11:15:53;2.70;;;1.80;;
10705;SDS011;5404;42.656;23.336;2023-08-08T11:18:18;1.27;;;1.10;;
10705;SDS011;5404;42.656;23.336;2023-08-08T11:20:44;3.10;;;1.30;;
10705;SDS011;5404;42.656;23.336;2023-08-08T11:23:09;1.20;;;1.10;;
10705;SDS011;5404;42.656;23.336;2023-08-08T11:25:39;1.33;;;1.23;;
10705;SDS011;5404;42.656;23.336;2023-08-08T11:28:05;1.48;;;1.35;;
10705;SDS011;5404;42.656;23.336;2023-08-08T11:30:32;2.15;;;1.50;;
10705;SDS011;5404;42.656;23.336;2023-08-08T11:32:59;1.20;;;1.10;;
10705;SDS011;5404;42.656;23.336;2023-08-08T11:35:25;7.03;;;1.38;;
10705;SDS011;5404;42.656;23.336;2023-08-08T11:37:52;1.20;;;1.10;;
10705;SDS011;5404;42.656;23.336;2023-08-08T11:40:20;1.48;;;1.38;;
10705;SDS011;5404;42.656;23.336;2023-08-08T11:42:47;4.35;;;2.70;;
10705;SDS011;5404;42.656;23.336;2023-08-08T11:45:15;7.93;;;1.70;;
10705;SDS011;5404;42.656;23.336;2023-08-08T11:47:41;3.13;;;1.60;;
10705;SDS011;5404;42.656;23.336;2023-08-08T11:50:07;6.43;;;1.17;;
10705;SDS011;5404;42.656;23.336;2023-08-08T11:52:35;5.25;;;2.00;;
10705;SDS011;5404;42.656;23.336;2023-08-08T11:55:05;1.77;;;1.50;;
10705;SDS011;5404;42.656;23.336;2023-08-08T11:57:31;1.65;;;1.50;;
10705;SDS011;5404;42.656;23.336;2023-08-08T11:59:58;2.30;;;1.48;;
10705;SDS011;5404;42.656;23.336;2023-08-08T12:02:25;4.25;;;1.27;;
10705;SDS011;5404;42.656;23.336;2023-08-08T12:04:52;3.07;;;1.80;;
10705;SDS011;5404;42.656;23.336;2023-08-08T12:07:17;4.78;;;1.77;;
10705;SDS011;5404;42.656;23.336;2023-08-08T12:09:46;4.65;;;1.90;;
10705;SDS011;5404;42.656;23.336;2023-08-08T12:12:12;2.10;;;1.38;;
10705;SDS011;5404;42.656;23.336;2023-08-08T12:14:39;1.70;;;1.48;;
10705;SDS011;5404;42.656;23.336;2023-08-08T12:17:06;2.85;;;1.60;;
10705;SDS011;5404;42.656;23.336;2023-08-08T12:19:32;5.28;;;3.10;;
10705;SDS011;5404;42.656;23.336;2023-08-08T12:21:57;1.95;;;1.60;;
10705;SDS011;5404;42.656;23.336;2023-08-08T12:24:23;2.00;;;1.60;;
10705;SDS011;5404;42.656;23.336;2023-08-08T12:26:48;2.03;;;1.75;;
10705;SDS011;5404;42.656;23.336;2023-08-08T12:29:14;2.33;;;1.40;;
10705;SDS011;5404;42.656;23.336;2023-08-08T12:31:39;3.30;;;1.50;;
10705;SDS011;5404;42.656;23.336;2023-08-08T12:34:05;5.40;;;1.42;;
10705;SDS011;5404;42.656;23.336;2023-08-08T12:36:30;6.38;;;1.88;;
10705;SDS011;5404;42.656;23.336;2023-08-08T12:38:56;1.77;;;1.50;;
10705;SDS011;5404;42.656;23.336;2023-08-08T12:41:22;2.80;;;1.60;;
10705;SDS011;5404;42.656;23.336;2023-08-08T12:43:50;3.33;;;1.60;;
10705;SDS011;5404;42.656;23.336;2023-08-08T12:46:15;1.75;;;1.63;;
10705;SDS011;5404;42.656;23.336;2023-08-08T12:48:41;3.47;;;1.98;;
10705;SDS011;5404;42.656;23.336;2023-08-08T12:51:08;3.75;;;1.70;;
10705;SDS011;5404;42.656;23.336;2023-08-08T12:53:33;3.83;;;1.75;;
10705;SDS011;5404;42.656;23.336;2023-08-08T12:56:00;6.20;;;2.33;;
10705;SDS011;5404;42.656;23.336;2023-08-08T12:58:27;4.88;;;2.30;;
10705;SDS011;5404;42.656;23.336;2023-08-08T13:00:53;12.32;;;1.83;;
10705;SDS011;5404;42.656;23.336;2023-08-08T13:03:18;4.97;;;1.48;;
10705;SDS011;5404;42.656;23.336;2023-08-08T13:05:44;2.17;;;1.60;;
10705;SDS011;5404;42.656;23.336;2023-08-08T13:08:09;2.20;;;1.80;;
10705;SDS011;5404;42.656;23.336;2023-08-08T13:10:35;1.30;;;1.20;;
10705;SDS011;5404;42.656;23.336;2023-08-08T13:13:01;3.25;;;1.77;;
10705;SDS011;5404;42.656;23.336;2023-08-08T13:15:26;3.13;;;1.70;;
10705;SDS011;5404;42.656;23.336;2023-08-08T13:17:52;5.13;;;1.70;;
10705;SDS011;5404;42.656;23.336;2023-08-08T13:20:17;1.80;;;1.27;;
10705;SDS011;5404;42.656;23.336;2023-08-08T13:22:43;1.25;;;1.15;;
10705;SDS011;5404;42.656;23.336;2023-08-08T13:25:09;5.22;;;1.52;;
10705;SDS011;5404;42.656;23.336;2023-08-08T13:27:35;1.25;;;1.15;;
10705;SDS011;5404;42.656;23.336;2023-08-08T13:30:01;1.75;;;1.60;;
10705;SDS011;5404;42.656;23.336;2023-08-08T13:32:27;1.67;;;1.58;;
10705;SDS011;5404;42.656;23.336;2023-08-08T13:34:52;1.65;;;1.52;;
10705;SDS011;5404;42.656;23.336;2023-08-08T13:37:18;2.47;;;1.58;;
10705;SDS011;5404;42.656;23.336;2023-08-08T13:39:43;1.40;;;1.20;;
10705;SDS011;5404;42.656;23.336;2023-08-08T13:42:08;1.40;;;1.30;;
10705;SDS011;5404;42.656;23.336;2023-08-08T13:44:34;4.93;;;1.80;;
10705;SDS011;5404;42.656;23.336;2023-08-08T13:47:00;4.00;;;1.50;;
10705;SDS011;5404;42.656;23.336;2023-08-08T13:49:25;4.30;;;1.40;;
10705;SDS011;5404;42.656;23.336;2023-08-08T13:51:52;6.50;;;2.95;;
10705;SDS011;5404;42.656;23.336;2023-08-08T13:54:18;18.00;;;3.80;;
10705;SDS011;5404;42.656;23.336;2023-08-08T13:56:44;3.70;;;1.60;;
10705;SDS011;5404;42.656;23.336;2023-08-08T13:59:10;13.60;;;2.53;;
10705;SDS011;5404;42.656;23.336;2023-08-08T14:01:36;4.35;;;1.55;;
10705;SDS011;5404;42.656;23.336;2023-08-08T14:04:02;2.22;;;1.60;;
10705;SDS011;5404;42.656;23.336;2023-08-08T14:06:28;2.65;;;1.60;;
10705;SDS011;5404;42.656;23.336;2023-08-08T14:08:54;4.78;;;1.40;;
10705;SDS011;5404;42.656;23.336;2023-08-08T14:11:19;1.88;;;1.48;;
10705;SDS011;5404;42.656;23.336;2023-08-08T14:13:45;1.98;;;1.35;;
10705;SDS011;5404;42.656;23.336;2023-08-08T14:16:10;3.35;;;1.35;;
10705;SDS011;5404;42.656;23.336;2023-08-08T14:18:36;10.23;;;1.60;;
10705;SDS011;5404;42.656;23.336;2023-08-08T14:21:01;1.77;;;1.45;;
10705;SDS011;5404;42.656;23.336;2023-08-08T14:23:29;8.48;;;1.63;;
10705;SDS011;5404;42.656;23.336;2023-08-08T14:25:55;7.30;;;1.50;;
10705;SDS011;5404;42.656;23.336;2023-08-08T14:28:20;1.63;;;1.52;;
10705;SDS011;5404;42.656;23.336;2023-08-08T14:30:46;1.95;;;1.38;;
10705;SDS011;5404;42.656;23.336;2023-08-08T14:33:13;1.73;;;1.40;;
10705;SDS011;5404;42.656;23.336;2023-08-08T14:35:39;6.37;;;1.97;;
10705;SDS011;5404;42.656;23.336;2023-08-08T14:38:05;3.38;;;1.73;;
10705;SDS011;5404;42.656;23.336;2023-08-08T14:40:30;2.65;;;1.65;;
10705;SDS011;5404;42.656;23.336;2023-08-08T14:42:57;1.88;;;1.77;;